createdAt,value
2017-02-17T00:00:44.994Z,981.64
2017-02-17T00:01:55.687Z,981.67
2017-02-17T00:03:06.392Z,981.67
2017-02-17T00:04:17.087Z,981.67
2017-02-17T00:05:27.802Z,981.68
2017-02-17T00:06:38.495Z,981.68
2017-02-17T00:07:49.203Z,981.73
2017-02-17T00:08:59.913Z,981.73
2017-02-17T00:10:10.612Z,981.68
2017-02-17T00:11:20.909Z,981.67
2017-02-17T00:12:31.599Z,981.68
2017-02-17T00:13:42.296Z,981.71
2017-02-17T00:14:52.998Z,981.71
2017-02-17T00:16:04.076Z,981.71
2017-02-17T00:17:14.813Z,981.73
2017-02-17T00:18:25.503Z,981.72
2017-02-17T00:19:36.210Z,981.73
2017-02-17T00:20:46.916Z,981.76
2017-02-17T00:21:57.613Z,981.8
2017-02-17T00:23:07.518Z,981.77
2017-02-17T00:24:17.828Z,981.78
2017-02-17T00:25:28.528Z,981.78
2017-02-17T00:26:39.241Z,981.78
2017-02-17T00:27:49.938Z,981.72
2017-02-17T00:29:00.646Z,981.72
2017-02-17T00:30:11.374Z,981.74
2017-02-17T00:31:21.671Z,981.77
2017-02-17T00:32:32.402Z,981.8
2017-02-17T00:33:43.107Z,981.76
2017-02-17T00:34:53.805Z,981.76
2017-02-17T00:36:04.507Z,981.66
2017-02-17T00:37:14.803Z,981.68
2017-02-17T00:38:25.095Z,981.68
2017-02-17T00:39:35.789Z,981.72
2017-02-17T00:40:46.483Z,981.71
2017-02-17T00:41:57.192Z,981.7
2017-02-17T00:43:07.898Z,981.71
2017-02-17T00:44:18.601Z,981.67
2017-02-17T00:45:29.293Z,981.67
2017-02-17T00:46:40.001Z,981.67
2017-02-17T00:47:50.714Z,981.67
2017-02-17T00:49:01.441Z,981.65
2017-02-17T00:50:11.752Z,981.69
2017-02-17T00:51:22.450Z,981.69
2017-02-17T00:52:33.149Z,981.67
2017-02-17T00:53:43.840Z,981.69
2017-02-17T00:54:54.538Z,981.67
2017-02-17T00:56:05.251Z,981.64
2017-02-17T00:57:15.550Z,981.69
2017-02-17T00:58:25.856Z,981.68
2017-02-17T00:59:36.573Z,981.75
2017-02-17T01:00:47.272Z,981.74
2017-02-17T01:01:57.973Z,981.71
2017-02-17T01:03:08.690Z,981.66
2017-02-17T01:04:19.014Z,981.64
2017-02-17T01:05:29.732Z,981.59
2017-02-17T01:06:40.469Z,981.58
2017-02-17T01:07:51.164Z,981.53
2017-02-17T01:09:01.871Z,981.53
2017-02-17T01:10:12.169Z,981.51
2017-02-17T01:11:22.864Z,981.49
2017-02-17T01:12:33.605Z,981.52
2017-02-17T01:13:44.298Z,981.56
2017-02-17T01:14:54.995Z,981.56
2017-02-17T01:16:05.676Z,981.61
2017-02-17T01:17:16.000Z,981.65
2017-02-17T01:18:26.704Z,981.64
2017-02-17T01:19:37.419Z,981.64
2017-02-17T01:20:47.716Z,981.66
2017-02-17T01:21:58.428Z,981.69
2017-02-17T01:23:08.734Z,981.65
2017-02-17T01:24:19.040Z,981.65
2017-02-17T01:25:29.349Z,981.66
2017-02-17T01:26:40.072Z,981.61
2017-02-17T01:27:50.762Z,981.55
2017-02-17T01:29:01.465Z,981.55
2017-02-17T01:30:11.797Z,981.6
2017-02-17T01:31:22.493Z,981.66
2017-02-17T01:32:33.182Z,981.66
2017-02-17T01:33:43.898Z,981.6
2017-02-17T01:34:54.589Z,981.48
2017-02-17T01:36:05.297Z,981.49
2017-02-17T01:37:15.619Z,981.4
2017-02-17T01:38:26.324Z,981.4
2017-02-17T01:39:37.036Z,981.46
2017-02-17T01:40:47.750Z,981.5
2017-02-17T01:41:58.454Z,981.47
2017-02-17T01:43:08.757Z,981.46
2017-02-17T01:44:19.476Z,981.51
2017-02-17T01:45:29.791Z,981.48
2017-02-17T01:46:40.481Z,981.47
2017-02-17T01:47:51.174Z,981.46
2017-02-17T01:49:01.869Z,981.49
2017-02-17T01:50:12.174Z,981.51
2017-02-17T01:51:22.886Z,981.51
2017-02-17T01:52:33.575Z,981.51
2017-02-17T01:53:44.284Z,981.55
2017-02-17T01:54:54.975Z,981.58
2017-02-17T01:56:05.673Z,981.61
2017-02-17T01:57:15.992Z,981.64
2017-02-17T01:58:26.288Z,981.68
2017-02-17T01:59:37.005Z,981.67
2017-02-17T02:00:47.704Z,981.7
2017-02-17T02:01:58.011Z,981.7
2017-02-17T02:03:08.303Z,981.7
2017-02-17T02:04:18.998Z,981.65
2017-02-17T02:05:29.710Z,981.59
2017-02-17T02:06:40.414Z,981.56
2017-02-17T02:07:51.109Z,981.57
2017-02-17T02:09:01.822Z,981.59
2017-02-17T02:10:12.122Z,981.55
2017-02-17T02:11:22.831Z,981.56
2017-02-17T02:12:33.531Z,981.62
2017-02-17T02:13:44.221Z,981.64
2017-02-17T02:14:54.921Z,981.68
2017-02-17T02:16:05.621Z,981.67
2017-02-17T02:17:16.344Z,981.68
2017-02-17T02:18:26.658Z,981.68
2017-02-17T02:19:37.341Z,981.68
2017-02-17T02:20:47.668Z,981.64
2017-02-17T02:21:58.371Z,981.64
2017-02-17T02:23:08.669Z,981.61
2017-02-17T02:24:19.361Z,981.61
2017-02-17T02:25:29.678Z,981.63
2017-02-17T02:26:40.399Z,981.66
2017-02-17T02:27:51.098Z,981.68
2017-02-17T02:29:01.801Z,981.7
2017-02-17T02:30:12.535Z,981.74
2017-02-17T02:31:22.846Z,981.7
2017-02-17T02:32:33.561Z,981.75
2017-02-17T02:33:44.283Z,981.77
2017-02-17T02:34:54.995Z,981.82
2017-02-17T02:36:05.686Z,981.84
2017-02-17T02:37:16.403Z,981.78
2017-02-17T02:38:27.109Z,981.72
2017-02-17T02:39:37.815Z,981.78
2017-02-17T02:40:48.522Z,981.87
2017-02-17T02:41:59.237Z,981.86
2017-02-17T02:43:09.933Z,981.75
2017-02-17T02:44:20.237Z,981.74
2017-02-17T02:45:30.941Z,981.73
2017-02-17T02:46:41.643Z,981.76
2017-02-17T02:47:52.338Z,981.77
2017-02-17T02:49:03.036Z,981.78
2017-02-17T02:50:13.738Z,981.78
2017-02-17T02:51:24.048Z,981.71
2017-02-17T02:52:34.751Z,981.72
2017-02-17T02:53:45.440Z,981.76
2017-02-17T02:54:56.161Z,981.75
2017-02-17T02:56:06.464Z,981.74
2017-02-17T02:57:17.155Z,981.69
2017-02-17T02:58:27.866Z,981.67
2017-02-17T02:59:38.575Z,981.67
2017-02-17T03:00:49.279Z,981.69
2017-02-17T03:01:59.992Z,981.7
2017-02-17T03:03:10.675Z,981.75
2017-02-17T03:04:20.577Z,981.75
2017-02-17T03:05:31.279Z,981.72
2017-02-17T03:06:41.977Z,981.71
2017-02-17T03:07:52.665Z,981.77
2017-02-17T03:09:03.358Z,981.74
2017-02-17T03:10:14.057Z,981.79
2017-02-17T03:11:24.743Z,981.78
2017-02-17T03:12:35.442Z,981.73
2017-02-17T03:13:46.135Z,981.71
2017-02-17T03:14:56.893Z,981.72
2017-02-17T03:16:07.585Z,981.7
2017-02-17T03:17:17.521Z,981.7
2017-02-17T03:18:27.816Z,981.69
2017-02-17T03:19:38.536Z,981.76
2017-02-17T03:20:49.258Z,981.8
2017-02-17T03:21:59.956Z,981.84
2017-02-17T03:23:10.249Z,981.82
2017-02-17T03:24:20.163Z,981.84
2017-02-17T03:25:30.883Z,981.86
2017-02-17T03:26:41.598Z,981.78
2017-02-17T03:27:52.306Z,981.73
2017-02-17T03:29:02.995Z,981.77
2017-02-17T03:30:13.697Z,981.8
2017-02-17T03:31:23.987Z,981.82
2017-02-17T03:32:34.669Z,981.81
2017-02-17T03:33:45.383Z,981.88
2017-02-17T03:34:56.092Z,981.9
2017-02-17T03:36:06.845Z,981.89
2017-02-17T03:37:17.168Z,981.89
2017-02-17T03:38:27.868Z,981.87
2017-02-17T03:39:38.552Z,981.87
2017-02-17T03:40:49.270Z,981.91
2017-02-17T03:41:59.985Z,981.95
2017-02-17T03:43:10.285Z,981.95
2017-02-17T03:44:20.977Z,982.06
2017-02-17T03:45:30.894Z,982.09
2017-02-17T03:46:41.216Z,982.12
2017-02-17T03:47:51.901Z,982.08
2017-02-17T03:49:02.605Z,982.05
2017-02-17T03:50:12.508Z,982.06
2017-02-17T03:51:22.817Z,982.08
2017-02-17T03:52:33.521Z,982.04
2017-02-17T03:53:44.222Z,982
2017-02-17T03:54:54.914Z,982.02
2017-02-17T03:56:05.606Z,982.09
2017-02-17T03:57:16.301Z,982.04
2017-02-17T03:58:26.616Z,982.1
2017-02-17T03:59:37.318Z,982.18
2017-02-17T04:00:47.609Z,982.11
2017-02-17T04:01:57.902Z,982.12
2017-02-17T04:03:08.644Z,982.05
2017-02-17T04:04:18.952Z,982.03
2017-02-17T04:05:29.678Z,981.99
2017-02-17T04:06:40.375Z,982.01
2017-02-17T04:07:51.085Z,982
2017-02-17T04:09:01.783Z,982.06
2017-02-17T04:10:12.497Z,982
2017-02-17T04:11:23.454Z,982.07
2017-02-17T04:12:34.167Z,982.01
2017-02-17T04:13:44.878Z,981.99
2017-02-17T04:14:55.574Z,982
2017-02-17T04:16:06.280Z,981.96
2017-02-17T04:17:16.637Z,982.01
2017-02-17T04:18:26.929Z,982.1
2017-02-17T04:19:37.626Z,982.13
2017-02-17T04:20:48.328Z,982.2
2017-02-17T04:21:59.026Z,982.22
2017-02-17T04:23:09.340Z,982.24
2017-02-17T04:24:20.039Z,982.26
2017-02-17T04:25:30.740Z,982.29
2017-02-17T04:26:41.452Z,982.38
2017-02-17T04:27:52.152Z,982.3
2017-02-17T04:29:02.864Z,982.29
2017-02-17T04:30:13.171Z,982.36
2017-02-17T04:31:23.505Z,982.35
2017-02-17T04:32:34.193Z,982.33
2017-02-17T04:33:44.894Z,982.34
2017-02-17T04:34:55.602Z,982.38
2017-02-17T04:36:06.310Z,982.33
2017-02-17T04:37:17.002Z,982.33
2017-02-17T04:38:27.698Z,982.3
2017-02-17T04:39:38.404Z,982.27
2017-02-17T04:40:49.086Z,982.32
2017-02-17T04:41:59.780Z,982.3
2017-02-17T04:43:10.498Z,982.32
2017-02-17T04:44:20.798Z,982.32
2017-02-17T04:45:31.112Z,982.28
2017-02-17T04:46:41.810Z,982.29
2017-02-17T04:47:52.522Z,982.24
2017-02-17T04:49:03.231Z,982.27
2017-02-17T04:50:13.546Z,982.25
2017-02-17T04:51:24.236Z,982.32
2017-02-17T04:52:34.929Z,982.26
2017-02-17T04:53:45.633Z,982.26
2017-02-17T04:54:56.338Z,982.28
2017-02-17T04:56:07.042Z,982.27
2017-02-17T04:57:16.927Z,982.35
2017-02-17T04:58:27.622Z,982.39
2017-02-17T04:59:38.319Z,982.41
2017-02-17T05:00:49.015Z,982.47
2017-02-17T05:01:59.748Z,982.37
2017-02-17T05:03:10.051Z,982.3
2017-02-17T05:04:20.773Z,982.29
2017-02-17T05:05:31.473Z,982.3
2017-02-17T05:06:42.149Z,982.31
2017-02-17T05:07:52.871Z,982.27
2017-02-17T05:09:03.567Z,982.31
2017-02-17T05:10:14.277Z,982.31
2017-02-17T05:11:24.962Z,982.37
2017-02-17T05:12:35.649Z,982.4
2017-02-17T05:13:46.347Z,982.45
2017-02-17T05:14:57.061Z,982.39
2017-02-17T05:16:07.780Z,982.36
2017-02-17T05:17:18.465Z,982.34
2017-02-17T05:18:29.161Z,982.34
2017-02-17T05:19:39.873Z,982.34
2017-02-17T05:20:50.168Z,982.39
2017-02-17T05:22:00.458Z,982.34
2017-02-17T05:23:10.743Z,982.39
2017-02-17T05:24:21.428Z,982.42
2017-02-17T05:25:32.134Z,982.39
2017-02-17T05:26:42.833Z,982.44
2017-02-17T05:27:53.539Z,982.46
2017-02-17T05:29:04.235Z,982.48
2017-02-17T05:30:14.935Z,982.49
2017-02-17T05:31:25.623Z,982.37
2017-02-17T05:32:35.921Z,982.42
2017-02-17T05:33:46.645Z,982.44
2017-02-17T05:34:57.354Z,982.38
2017-02-17T05:36:08.044Z,982.41
2017-02-17T05:37:18.748Z,982.53
2017-02-17T05:38:29.447Z,982.55
2017-02-17T05:39:40.182Z,982.54
2017-02-17T05:40:50.491Z,982.53
2017-02-17T05:42:01.207Z,982.53
2017-02-17T05:43:11.509Z,982.58
2017-02-17T05:44:21.412Z,982.6
2017-02-17T05:45:32.106Z,982.57
2017-02-17T05:46:42.818Z,982.61
2017-02-17T05:47:53.529Z,982.6
2017-02-17T05:49:04.230Z,982.6
2017-02-17T05:50:14.936Z,982.61
2017-02-17T05:51:25.622Z,982.58
2017-02-17T05:52:35.948Z,982.58
2017-02-17T05:53:46.663Z,982.58
2017-02-17T05:54:57.364Z,982.52
2017-02-17T05:56:07.669Z,982.46
2017-02-17T05:57:17.976Z,982.54
2017-02-17T05:58:28.717Z,982.59
2017-02-17T05:59:39.031Z,982.59
2017-02-17T06:00:49.732Z,982.64
2017-02-17T06:02:00.452Z,982.6
2017-02-17T06:03:10.707Z,982.64
2017-02-17T06:04:21.424Z,982.65
2017-02-17T06:05:31.335Z,982.64
2017-02-17T06:06:42.043Z,982.69
2017-02-17T06:07:52.343Z,982.66
2017-02-17T06:09:03.056Z,982.69
2017-02-17T06:10:13.362Z,982.67
2017-02-17T06:11:24.058Z,982.7
2017-02-17T06:12:34.774Z,982.66
2017-02-17T06:13:45.492Z,982.73
2017-02-17T06:14:55.811Z,982.7
2017-02-17T06:16:06.539Z,982.74
2017-02-17T06:17:16.838Z,982.73
2017-02-17T06:18:27.530Z,982.7
2017-02-17T06:19:38.243Z,982.68
2017-02-17T06:20:48.942Z,982.69
2017-02-17T06:21:59.236Z,982.75
2017-02-17T06:23:09.934Z,982.71
2017-02-17T06:24:20.241Z,982.68
2017-02-17T06:25:30.933Z,982.78
2017-02-17T06:26:41.628Z,982.8
2017-02-17T06:27:52.357Z,982.78
2017-02-17T06:29:03.062Z,982.81
2017-02-17T06:30:13.353Z,982.84
2017-02-17T06:31:23.666Z,982.81
2017-02-17T06:32:33.986Z,982.83
2017-02-17T06:33:44.676Z,982.81
2017-02-17T06:34:55.391Z,982.87
2017-02-17T06:36:05.680Z,982.85
2017-02-17T06:37:15.196Z,982.81
2017-02-17T06:38:25.900Z,982.78
2017-02-17T06:39:36.214Z,982.83
2017-02-17T06:40:46.936Z,982.88
2017-02-17T06:41:57.648Z,982.9
2017-02-17T06:43:08.340Z,982.91
2017-02-17T06:44:19.040Z,982.95
2017-02-17T06:45:29.732Z,982.9
2017-02-17T06:46:40.039Z,982.96
2017-02-17T06:47:50.740Z,982.95
2017-02-17T06:49:01.461Z,982.98
2017-02-17T06:50:12.161Z,982.99
2017-02-17T06:51:22.461Z,982.98
2017-02-17T06:52:33.172Z,983
2017-02-17T06:53:43.859Z,983.04
2017-02-17T06:54:54.561Z,983.09
2017-02-17T06:56:05.467Z,983.07
2017-02-17T06:57:15.786Z,983.01
2017-02-17T06:58:26.492Z,983
2017-02-17T06:59:37.186Z,982.95
2017-02-17T07:00:47.913Z,982.98
2017-02-17T07:01:58.612Z,983.02
2017-02-17T07:03:09.313Z,983.03
2017-02-17T07:04:20.018Z,983.08
2017-02-17T07:05:30.713Z,983.02
2017-02-17T07:06:41.408Z,983.07
2017-02-17T07:07:52.113Z,983.07
2017-02-17T07:09:02.805Z,983.09
2017-02-17T07:10:12.712Z,983.15
2017-02-17T07:11:23.020Z,983.09
2017-02-17T07:12:33.741Z,983.14
2017-02-17T07:13:44.428Z,983.17
2017-02-17T07:14:54.741Z,983.14
2017-02-17T07:16:05.453Z,983.26
2017-02-17T07:17:15.357Z,983.28
2017-02-17T07:18:26.058Z,983.24
2017-02-17T07:19:35.981Z,983.31
2017-02-17T07:20:46.272Z,983.31
2017-02-17T07:21:56.972Z,983.38
2017-02-17T07:23:07.694Z,983.42
2017-02-17T07:24:18.026Z,983.38
2017-02-17T07:25:28.731Z,983.45
2017-02-17T07:26:39.041Z,983.43
2017-02-17T07:27:49.735Z,983.49
2017-02-17T07:29:00.430Z,983.45
2017-02-17T07:30:11.125Z,983.49
2017-02-17T07:31:21.829Z,983.5
2017-02-17T07:32:32.541Z,983.49
2017-02-17T07:33:43.245Z,983.47
2017-02-17T07:34:53.944Z,983.53
2017-02-17T07:36:04.684Z,983.57
2017-02-17T07:37:15.385Z,983.57
2017-02-17T07:38:26.115Z,983.62
2017-02-17T07:39:36.816Z,983.54
2017-02-17T07:40:47.520Z,983.52
2017-02-17T07:41:58.233Z,983.52
2017-02-17T07:43:08.537Z,983.53
2017-02-17T07:44:18.842Z,983.5
2017-02-17T07:45:29.147Z,983.57
2017-02-17T07:46:39.853Z,983.61
2017-02-17T07:47:50.556Z,983.6
2017-02-17T07:49:01.266Z,983.57
2017-02-17T07:50:11.969Z,983.54
2017-02-17T07:51:22.267Z,983.61
2017-02-17T07:52:32.970Z,983.62
2017-02-17T07:53:43.654Z,983.62
2017-02-17T07:54:54.378Z,983.72
2017-02-17T07:56:05.080Z,983.7
2017-02-17T07:57:15.376Z,983.77
2017-02-17T07:58:26.075Z,983.77
2017-02-17T07:59:36.769Z,983.84
2017-02-17T08:00:47.481Z,983.8
2017-02-17T08:01:58.165Z,983.86
2017-02-17T08:03:08.864Z,983.88
2017-02-17T08:04:19.151Z,983.94
2017-02-17T08:05:29.849Z,983.94
2017-02-17T08:06:40.557Z,983.9
2017-02-17T08:07:50.867Z,983.86
2017-02-17T08:09:01.563Z,983.83
2017-02-17T08:10:11.867Z,983.78
2017-02-17T08:11:22.168Z,983.77
2017-02-17T08:12:32.872Z,983.74
2017-02-17T08:13:43.558Z,983.84
2017-02-17T08:14:54.249Z,983.87
2017-02-17T08:16:04.960Z,983.92
2017-02-17T08:17:15.266Z,983.94
2017-02-17T08:18:25.977Z,983.97
2017-02-17T08:19:36.679Z,984
2017-02-17T08:20:47.362Z,983.97
2017-02-17T08:21:58.079Z,983.98
2017-02-17T08:23:07.990Z,983.92
2017-02-17T08:24:18.702Z,983.85
2017-02-17T08:25:29.430Z,983.84
2017-02-17T08:26:40.152Z,983.82
2017-02-17T08:27:50.854Z,983.94
2017-02-17T08:29:01.562Z,984
2017-02-17T08:30:12.287Z,983.99
2017-02-17T08:31:22.579Z,984.01
2017-02-17T08:32:33.295Z,983.93
2017-02-17T08:33:43.996Z,983.9
2017-02-17T08:34:54.701Z,983.86
2017-02-17T08:36:05.015Z,983.84
2017-02-17T08:37:15.746Z,983.9
2017-02-17T08:38:26.449Z,983.97
2017-02-17T08:39:37.164Z,983.94
2017-02-17T08:40:47.473Z,983.99
2017-02-17T08:41:58.164Z,983.92
2017-02-17T08:43:08.864Z,983.91
2017-02-17T08:44:19.566Z,984
2017-02-17T08:45:30.258Z,984.05
2017-02-17T08:46:40.952Z,984.16
2017-02-17T08:47:51.659Z,984.14
2017-02-17T08:49:02.366Z,984.21
2017-02-17T08:50:13.084Z,984.19
2017-02-17T08:51:23.403Z,984.19
2017-02-17T08:52:34.125Z,984.15
2017-02-17T08:53:44.429Z,984.15
2017-02-17T08:54:55.125Z,984.17
2017-02-17T08:56:05.827Z,984.16
2017-02-17T08:57:16.121Z,984.15
2017-02-17T08:58:26.422Z,984.17
2017-02-17T08:59:37.124Z,984.2
2017-02-17T09:00:47.428Z,984.18
2017-02-17T09:01:58.141Z,984.2
2017-02-17T09:03:08.444Z,984.23
2017-02-17T09:04:18.769Z,984.17
2017-02-17T09:05:29.487Z,984.21
2017-02-17T09:06:40.197Z,984.22
2017-02-17T09:07:50.894Z,984.15
2017-02-17T09:09:01.592Z,984.15
2017-02-17T09:10:12.300Z,984.19
2017-02-17T09:11:22.989Z,984.2
2017-02-17T09:12:33.687Z,984.19
2017-02-17T09:13:44.395Z,984.19
2017-02-17T09:14:55.109Z,984.13
2017-02-17T09:16:05.404Z,984.22
2017-02-17T09:17:16.111Z,984.27
2017-02-17T09:18:26.413Z,984.31
2017-02-17T09:19:37.121Z,984.29
2017-02-17T09:20:47.824Z,984.23
2017-02-17T09:21:58.117Z,984.26
2017-02-17T09:23:07.629Z,984.21
2017-02-17T09:24:17.923Z,984.2
2017-02-17T09:25:28.635Z,984.21
2017-02-17T09:26:39.335Z,984.21
2017-02-17T09:27:50.039Z,984.16
2017-02-17T09:29:00.739Z,984.16
2017-02-17T09:30:11.462Z,984.17
2017-02-17T09:31:22.170Z,984.23
2017-02-17T09:32:32.500Z,984.19
2017-02-17T09:33:43.205Z,984.18
2017-02-17T09:34:53.518Z,984.15
2017-02-17T09:36:03.823Z,984.16
2017-02-17T09:37:14.518Z,984.2
2017-02-17T09:38:25.239Z,984.23
2017-02-17T09:39:35.564Z,984.3
2017-02-17T09:40:46.285Z,984.27
2017-02-17T09:41:56.992Z,984.3
2017-02-17T09:43:06.961Z,984.33
2017-02-17T09:44:17.279Z,984.33
2017-02-17T09:45:27.977Z,984.33
2017-02-17T09:46:38.707Z,984.33
2017-02-17T09:47:49.403Z,984.32
2017-02-17T09:49:00.113Z,984.3
2017-02-17T09:50:10.824Z,984.31
2017-02-17T09:51:21.512Z,984.27
2017-02-17T09:52:32.256Z,984.28
2017-02-17T09:53:42.960Z,984.25
2017-02-17T09:54:53.662Z,984.25
2017-02-17T09:56:03.966Z,984.24
2017-02-17T09:57:14.279Z,984.27
2017-02-17T09:58:24.981Z,984.32
2017-02-17T09:59:35.283Z,984.31
2017-02-17T10:00:45.974Z,984.32
2017-02-17T10:01:56.274Z,984.34
2017-02-17T10:03:06.992Z,984.35
2017-02-17T10:04:17.703Z,984.31
2017-02-17T10:05:28.396Z,984.3
2017-02-17T10:06:39.109Z,984.26
2017-02-17T10:07:49.827Z,984.24
2017-02-17T10:09:00.530Z,984.2
2017-02-17T10:10:10.823Z,984.22
2017-02-17T10:11:21.137Z,984.21
2017-02-17T10:12:31.831Z,984.22
2017-02-17T10:13:42.542Z,984.27
2017-02-17T10:14:52.852Z,984.29
2017-02-17T10:16:03.577Z,984.33
2017-02-17T10:17:14.269Z,984.31
2017-02-17T10:18:24.968Z,984.37
2017-02-17T10:19:35.683Z,984.42
2017-02-17T10:20:46.378Z,984.4
2017-02-17T10:21:57.135Z,984.39
2017-02-17T10:23:07.856Z,984.35
2017-02-17T10:24:18.156Z,984.34
2017-02-17T10:25:27.675Z,984.33
2017-02-17T10:26:38.393Z,984.33
2017-02-17T10:27:48.702Z,984.32
2017-02-17T10:28:59.026Z,984.4
2017-02-17T10:30:09.727Z,984.41
2017-02-17T10:31:20.434Z,984.42
2017-02-17T10:32:30.750Z,984.39
2017-02-17T10:33:41.455Z,984.47
2017-02-17T10:34:52.160Z,984.5
2017-02-17T10:36:02.898Z,984.51
2017-02-17T10:37:13.628Z,984.48
2017-02-17T10:38:24.334Z,984.5
2017-02-17T10:39:35.059Z,984.45
2017-02-17T10:40:45.765Z,984.46
2017-02-17T10:41:56.529Z,984.42
2017-02-17T10:43:07.245Z,984.39
2017-02-17T10:44:17.962Z,984.5
2017-02-17T10:45:28.307Z,984.42
2017-02-17T10:46:39.028Z,984.53
2017-02-17T10:47:49.763Z,984.61
2017-02-17T10:49:00.478Z,984.66
2017-02-17T10:50:11.198Z,984.62
2017-02-17T10:51:21.898Z,984.57
2017-02-17T10:52:32.613Z,984.55
2017-02-17T10:53:43.347Z,984.56
2017-02-17T10:54:53.676Z,984.56
2017-02-17T10:56:04.387Z,984.57
2017-02-17T10:57:15.100Z,984.61
2017-02-17T10:58:25.799Z,984.6
2017-02-17T10:59:36.520Z,984.57
2017-02-17T11:00:47.228Z,984.6
2017-02-17T11:01:57.550Z,984.57
2017-02-17T11:03:08.263Z,984.56
2017-02-17T11:04:18.966Z,984.53
2017-02-17T11:05:28.876Z,984.56
2017-02-17T11:06:39.577Z,984.56
2017-02-17T11:07:50.288Z,984.57
2017-02-17T11:09:00.992Z,984.52
2017-02-17T11:10:11.297Z,984.56
2017-02-17T11:11:21.610Z,984.6
2017-02-17T11:12:32.322Z,984.62
2017-02-17T11:13:43.019Z,984.63
2017-02-17T11:14:53.423Z,984.64
2017-02-17T11:16:03.339Z,984.67
2017-02-17T11:17:14.048Z,984.53
2017-02-17T11:18:24.761Z,984.55
2017-02-17T11:19:35.473Z,984.53
2017-02-17T11:20:45.791Z,984.47
2017-02-17T11:21:56.109Z,984.45
2017-02-17T11:23:06.443Z,984.47
2017-02-17T11:24:17.168Z,984.54
2017-02-17T11:25:27.882Z,984.67
2017-02-17T11:26:38.597Z,984.68
2017-02-17T11:27:49.312Z,984.65
2017-02-17T11:29:00.021Z,984.65
2017-02-17T11:30:10.329Z,984.6
2017-02-17T11:31:21.060Z,984.55
2017-02-17T11:32:31.799Z,984.55
2017-02-17T11:33:42.509Z,984.6
2017-02-17T11:34:52.811Z,984.56
2017-02-17T11:36:02.757Z,984.51
2017-02-17T11:37:13.481Z,984.56
2017-02-17T11:38:23.385Z,984.58
2017-02-17T11:39:34.131Z,984.51
2017-02-17T11:40:44.846Z,984.56
2017-02-17T11:41:55.552Z,984.6
2017-02-17T11:43:05.868Z,984.62
2017-02-17T11:44:16.203Z,984.58
2017-02-17T11:45:26.927Z,984.59
2017-02-17T11:46:37.256Z,984.61
2017-02-17T11:47:48.003Z,984.69
2017-02-17T11:48:58.364Z,984.73
2017-02-17T11:50:08.675Z,984.68
2017-02-17T11:51:19.402Z,984.61
2017-02-17T11:52:30.131Z,984.59
2017-02-17T11:53:40.444Z,984.56
2017-02-17T11:54:51.197Z,984.56
2017-02-17T11:56:01.912Z,984.5
2017-02-17T11:57:12.281Z,984.49
2017-02-17T11:58:22.614Z,984.51
2017-02-17T11:59:33.328Z,984.46
2017-02-17T12:00:44.048Z,984.44
2017-02-17T12:01:54.762Z,984.47
2017-02-17T12:03:05.494Z,984.5
2017-02-17T12:04:16.217Z,984.51
2017-02-17T12:05:26.941Z,984.55
2017-02-17T12:06:37.693Z,984.47
2017-02-17T12:07:48.490Z,984.5
2017-02-17T12:08:59.204Z,984.56
2017-02-17T12:10:09.938Z,984.59
2017-02-17T12:11:20.701Z,984.53
2017-02-17T12:12:31.032Z,984.53
2017-02-17T12:13:41.765Z,984.49
2017-02-17T12:14:52.485Z,984.53
2017-02-17T12:16:03.207Z,984.54
2017-02-17T12:17:13.939Z,984.57
2017-02-17T12:18:24.660Z,984.55
2017-02-17T12:19:35.387Z,984.54
2017-02-17T12:20:46.102Z,984.53
2017-02-17T12:21:56.829Z,984.58
2017-02-17T12:23:07.547Z,984.58
2017-02-17T12:24:17.894Z,984.61
2017-02-17T12:25:28.627Z,984.67
2017-02-17T12:26:39.372Z,984.63
2017-02-17T12:27:50.100Z,984.61
2017-02-17T12:29:00.829Z,984.65
2017-02-17T12:30:11.551Z,984.69
2017-02-17T12:31:22.267Z,984.72
2017-02-17T12:32:32.978Z,984.74
2017-02-17T12:33:43.703Z,984.73
2017-02-17T12:34:54.430Z,984.74
2017-02-17T12:36:04.749Z,984.76
2017-02-17T12:37:15.614Z,984.71
2017-02-17T12:38:26.354Z,984.74
2017-02-17T12:39:37.079Z,984.72
2017-02-17T12:40:47.438Z,985.07
2017-02-17T12:41:58.157Z,985.22
2017-02-17T12:43:08.487Z,985.12
2017-02-17T12:44:18.440Z,985.15
2017-02-17T12:45:29.149Z,985.11
2017-02-17T12:46:39.860Z,985.11
2017-02-17T12:47:50.611Z,985.09
2017-02-17T12:49:00.149Z,984.96
2017-02-17T12:50:10.861Z,984.77
2017-02-17T12:51:21.594Z,984.78
2017-02-17T12:52:32.338Z,984.8
2017-02-17T12:53:43.053Z,984.8
2017-02-17T12:54:53.776Z,984.78
2017-02-17T12:56:04.104Z,984.81
2017-02-17T12:57:14.434Z,984.8
2017-02-17T12:58:25.159Z,984.84
2017-02-17T12:59:35.886Z,984.8
2017-02-17T13:00:46.654Z,984.85
2017-02-17T13:01:57.373Z,984.84
2017-02-17T13:03:07.698Z,984.87
2017-02-17T13:04:18.426Z,984.98
2017-02-17T13:05:29.149Z,984.89
2017-02-17T13:06:39.471Z,985.08
2017-02-17T13:07:50.217Z,985.17
2017-02-17T13:09:00.951Z,985.03
2017-02-17T13:10:11.659Z,984.88
2017-02-17T13:11:22.013Z,984.77
2017-02-17T13:12:32.745Z,984.67
2017-02-17T13:13:43.474Z,984.67
2017-02-17T13:14:54.190Z,984.64
2017-02-17T13:16:04.917Z,984.66
2017-02-17T13:17:15.635Z,984.63
2017-02-17T13:18:26.354Z,984.63
2017-02-17T13:19:37.076Z,984.6
2017-02-17T13:20:47.806Z,984.55
2017-02-17T13:21:58.540Z,984.51
2017-02-17T13:23:09.289Z,984.47
2017-02-17T13:24:20.016Z,984.47
2017-02-17T13:25:30.726Z,984.47
2017-02-17T13:26:41.462Z,984.51
2017-02-17T13:27:51.787Z,984.57
2017-02-17T13:29:02.522Z,984.64
2017-02-17T13:30:13.250Z,984.68
2017-02-17T13:31:24.224Z,984.71
2017-02-17T13:32:35.444Z,984.66
2017-02-17T13:33:46.377Z,984.66
2017-02-17T13:34:57.312Z,984.64
2017-02-17T13:36:08.566Z,984.67
2017-02-17T13:37:19.334Z,984.62
2017-02-17T13:38:30.470Z,984.69
2017-02-17T13:39:41.196Z,984.63
2017-02-17T13:40:52.576Z,984.7
2017-02-17T13:42:03.539Z,984.71
2017-02-17T13:43:14.314Z,984.73
2017-02-17T13:44:25.246Z,984.85
2017-02-17T13:45:36.323Z,985.04
2017-02-17T13:46:47.164Z,984.94
2017-02-17T13:47:58.204Z,984.71
2017-02-17T13:49:07.894Z,984.65
2017-02-17T13:50:18.296Z,984.78
2017-02-17T13:51:29.128Z,984.81
2017-02-17T13:52:39.944Z,984.71
2017-02-17T13:53:50.788Z,984.79
2017-02-17T13:55:01.101Z,985.02
2017-02-17T13:56:11.417Z,985.01
2017-02-17T13:57:22.142Z,984.92
2017-02-17T13:58:32.872Z,984.89
2017-02-17T13:59:43.576Z,984.91
2017-02-17T14:00:54.290Z,984.91
2017-02-17T14:02:05.017Z,984.93
2017-02-17T14:03:15.344Z,984.93
2017-02-17T14:04:25.667Z,984.89
2017-02-17T14:05:36.382Z,984.81
2017-02-17T14:06:47.118Z,984.79
2017-02-17T14:07:57.874Z,984.8
2017-02-17T14:09:08.194Z,984.83
2017-02-17T14:10:18.510Z,984.85
2017-02-17T14:11:28.829Z,984.84
2017-02-17T14:12:39.532Z,984.85
2017-02-17T14:13:49.850Z,984.86
2017-02-17T14:15:00.581Z,984.86
2017-02-17T14:16:10.892Z,984.9
2017-02-17T14:17:21.211Z,984.89
2017-02-17T14:18:31.919Z,984.85
2017-02-17T14:19:42.655Z,984.87
2017-02-17T14:20:53.375Z,984.82
2017-02-17T14:22:03.675Z,984.89
2017-02-17T14:23:14.001Z,984.96
2017-02-17T14:24:24.717Z,984.9
2017-02-17T14:25:35.433Z,984.88
2017-02-17T14:26:46.145Z,984.88
2017-02-17T14:27:56.461Z,984.88
2017-02-17T14:29:07.169Z,984.91
2017-02-17T14:30:17.480Z,984.87
2017-02-17T14:31:28.207Z,984.81
2017-02-17T14:32:38.518Z,984.76
2017-02-17T14:33:49.209Z,984.78
2017-02-17T14:34:59.921Z,984.81
2017-02-17T14:36:10.639Z,984.84
2017-02-17T14:37:20.976Z,984.85
2017-02-17T14:38:31.298Z,984.96
2017-02-17T14:39:41.602Z,984.98
2017-02-17T14:40:52.315Z,984.96
2017-02-17T14:42:03.030Z,985.02
2017-02-17T14:43:13.370Z,984.97
2017-02-17T14:44:24.079Z,984.97